Ginga — JJ4054 — position and weather

sailwx.info

Track history (hours):
 
Tides and Currents Weather Stations Pressure Air Temp Water Temp Dewpoint Dewpoint Depression Visibility Wind Speed Wind Dir Waves Ship Positions

Ginga

Last reported at 2015-Feb-26 19:23 UTC. Time now 2015-Feb-27 13:11 UTC.
Position N 34°39' E 135°09'.

Length 28 m; draft 1.6 m.

Type: Other ship. MMSI: 431301704.

Date/timePositionNaut miles runAvg speedWind from/ knotsBaromVisibWave heightAir tempDewpointWater temp
2015-Feb-26 19:23N 34°39' E 135°09'911.1
2015-Feb-26 18:33N 34°38' E 134°58'8 8.1
2015-Feb-26 17:33N 34°35' E 135°08'4 4.3
2015-Feb-26 16:33N 34°39' E 135°09'0 0.0
2015-Feb-26 09:27N 34°39' E 135°09'5 2.4
2015-Feb-26 07:13N 34°38' E 135°03'1 0.4
2015-Feb-26 03:32N 34°36' E 135°02'1 0.9
2015-Feb-26 02:23N 34°37' E 135°02'6 1.2
2015-Feb-25 21:21N 34°39' E 135°09'1012.5
2015-Feb-25 20:33N 34°37' E 134°58'7 7.4
2015-Feb-25 19:33N 34°35' E 135°06'8 7.6
2015-Feb-25 18:33N 34°28' E 135°05'1711.6
2015-Feb-25 17:06N 34°11' E 134°60'11 1.4
2015-Feb-25 09:10N 34°23' E 135°00'914.5
2015-Feb-25 08:33N 34°30' E 135°05'8 7.4
2015-Feb-25 07:27N 34°37' E 134°59'5 0.2
2015-Feb-23 21:16N 34°35' E 134°53'811.7
2015-Feb-23 20:33N 34°36' E 135°03'6 5.8
2015-Feb-23 19:33N 34°33' E 135°08'9 8.5
2015-Feb-23 18:33N 34°25' E 135°04'1410.9
2015-Feb-23 17:17N 34°11' E 134°59'12 0.9
2015-Feb-23 04:10N 34°23' E 135°01'812.3
2015-Feb-23 03:33N 34°30' E 135°04'11 0.4
2015-Feb-22 01:22N 34°35' E 134°52'1012.3
2015-Feb-22 00:33N 34°36' E 135°04'6 6.0
2015-Feb-21 23:33N 34°30' E 135°06'6 2.0
2015-Feb-21 20:33N 34°25' E 135°02'1515.5
2015-Feb-21 19:33N 34°39' E 135°10'1 0.0
2015-Feb-20 22:32N 34°39' E 135°09'1110.9
2015-Feb-20 21:33N 34°37' E 134°57'8 8.3
2015-Feb-20 20:33N 34°36' E 135°06'6 6.2
2015-Feb-20 19:33N 34°33' E 135°13'6 6.4
2015-Feb-20 18:33N 34°39' E 135°09'1 0.1
2015-Feb-20 05:33N 34°39' E 135°11'6 6.3
2015-Feb-20 04:33N 34°36' E 135°05'3 2.8
2015-Feb-20 03:32N 34°38' E 135°02'1 1.1
2015-Feb-20 02:33N 34°38' E 135°03'2 0.5
2015-Feb-19 21:26N 34°38' E 135°00'4 4.4
2015-Feb-19 20:33N 34°36' E 135°04'5 4.6
2015-Feb-19 19:34N 34°34' E 135°09'5 1.0
2015-Feb-19 14:34N 34°36' E 135°04'10 4.9
2015-Feb-19 12:33N 34°27' E 135°02'9 8.5
2015-Feb-19 11:33N 34°35' E 135°04'6 5.4
2015-Feb-19 10:27N 34°36' E 134°57'5 5.8
2015-Feb-19 09:33N 34°38' E 135°03'0 0.0
2015-Feb-19 00:33N 34°38' E 135°03'4 4.1
2015-Feb-18 23:34N 34°37' E 134°58'7 6.7
2015-Feb-18 22:34N 34°36' E 135°06'9 4.1
2015-Feb-18 20:27N 34°37' E 134°56'8 8.6
2015-Feb-18 19:33N 34°35' E 135°05'5 4.6
2015-Feb-18 18:33N 34°37' E 135°10'3 0.2
2015-Feb-18 02:34N 34°35' E 135°08'9 7.4
2015-Feb-18 01:21N 34°35' E 134°57'0 0.2
2015-Feb-18 00:22N 34°36' E 134°56'3 3.7
2015-Feb-17 23:33N 34°38' E 134°59'9 8.6
2015-Feb-17 22:33N 34°33' E 135°08'8 8.3
2015-Feb-17 21:33N 34°26' E 135°04'1211.9
2015-Feb-17 20:30N 34°14' E 135°00'3 0.2
2015-Feb-17 09:20N 34°15' E 134°58'1113.8
2015-Feb-17 08:33N 34°26' E 135°01'10 9.7
2015-Feb-17 07:33N 34°35' E 135°03'6 1.6
2015-Feb-17 03:25N 34°38' E 134°56'1113.4
2015-Feb-17 02:33N 34°39' E 135°10'  
Track history (hours):
 
Tides and Currents Weather Stations Pressure Air Temp Water Temp Dewpoint Dewpoint Depression Visibility Wind Speed Wind Dir Waves Ship Positions

Ginga

Last reported at 2015-Feb-26 19:23 UTC. Time now 2015-Feb-27 13:11 UTC.
Position N 34°39' E 135°09'.

Length 28 m; draft 1.6 m.

Type: Other ship. MMSI: 431301704.

Date/timePositionNaut miles runAvg speedWind from/ knotsBaromVisibWave heightAir tempDewpointWater temp
2015-Feb-26 19:23N 34°39' E 135°09'911.1
2015-Feb-26 18:33N 34°38' E 134°58'8 8.1
2015-Feb-26 17:33N 34°35' E 135°08'4 4.3
2015-Feb-26 16:33N 34°39' E 135°09'0 0.0
2015-Feb-26 09:27N 34°39' E 135°09'5 2.4
2015-Feb-26 07:13N 34°38' E 135°03'1 0.4
2015-Feb-26 03:32N 34°36' E 135°02'1 0.9
2015-Feb-26 02:23N 34°37' E 135°02'6 1.2
2015-Feb-25 21:21N 34°39' E 135°09'1012.5
2015-Feb-25 20:33N 34°37' E 134°58'7 7.4
2015-Feb-25 19:33N 34°35' E 135°06'8 7.6
2015-Feb-25 18:33N 34°28' E 135°05'1711.6
2015-Feb-25 17:06N 34°11' E 134°60'11 1.4
2015-Feb-25 09:10N 34°23' E 135°00'914.5
2015-Feb-25 08:33N 34°30' E 135°05'8 7.4
2015-Feb-25 07:27N 34°37' E 134°59'5 0.2
2015-Feb-23 21:16N 34°35' E 134°53'811.7
2015-Feb-23 20:33N 34°36' E 135°03'6 5.8
2015-Feb-23 19:33N 34°33' E 135°08'9 8.5
2015-Feb-23 18:33N 34°25' E 135°04'1410.9
2015-Feb-23 17:17N 34°11' E 134°59'12 0.9
2015-Feb-23 04:10N 34°23' E 135°01'812.3
2015-Feb-23 03:33N 34°30' E 135°04'11 0.4
2015-Feb-22 01:22N 34°35' E 134°52'1012.3
2015-Feb-22 00:33N 34°36' E 135°04'6 6.0
2015-Feb-21 23:33N 34°30' E 135°06'6 2.0
2015-Feb-21 20:33N 34°25' E 135°02'1515.5
2015-Feb-21 19:33N 34°39' E 135°10'1 0.0
2015-Feb-20 22:32N 34°39' E 135°09'1110.9
2015-Feb-20 21:33N 34°37' E 134°57'8 8.3
2015-Feb-20 20:33N 34°36' E 135°06'6 6.2
2015-Feb-20 19:33N 34°33' E 135°13'6 6.4
2015-Feb-20 18:33N 34°39' E 135°09'1 0.1
2015-Feb-20 05:33N 34°39' E 135°11'6 6.3
2015-Feb-20 04:33N 34°36' E 135°05'3 2.8
2015-Feb-20 03:32N 34°38' E 135°02'1 1.1
2015-Feb-20 02:33N 34°38' E 135°03'2 0.5
2015-Feb-19 21:26N 34°38' E 135°00'4 4.4
2015-Feb-19 20:33N 34°36' E 135°04'5 4.6
2015-Feb-19 19:34N 34°34' E 135°09'5 1.0
2015-Feb-19 14:34N 34°36' E 135°04'10 4.9
2015-Feb-19 12:33N 34°27' E 135°02'9 8.5
2015-Feb-19 11:33N 34°35' E 135°04'6 5.4
2015-Feb-19 10:27N 34°36' E 134°57'5 5.8
2015-Feb-19 09:33N 34°38' E 135°03'0 0.0
2015-Feb-19 00:33N 34°38' E 135°03'4 4.1
2015-Feb-18 23:34N 34°37' E 134°58'7 6.7
2015-Feb-18 22:34N 34°36' E 135°06'9 4.1
2015-Feb-18 20:27N 34°37' E 134°56'8 8.6
2015-Feb-18 19:33N 34°35' E 135°05'5 4.6
2015-Feb-18 18:33N 34°37' E 135°10'3 0.2
2015-Feb-18 02:34N 34°35' E 135°08'9 7.4
2015-Feb-18 01:21N 34°35' E 134°57'0 0.2
2015-Feb-18 00:22N 34°36' E 134°56'3 3.7
2015-Feb-17 23:33N 34°38' E 134°59'9 8.6
2015-Feb-17 22:33N 34°33' E 135°08'8 8.3
2015-Feb-17 21:33N 34°26' E 135°04'1211.9
2015-Feb-17 20:30N 34°14' E 135°00'3 0.2
2015-Feb-17 09:20N 34°15' E 134°58'1113.8
2015-Feb-17 08:33N 34°26' E 135°01'10 9.7
2015-Feb-17 07:33N 34°35' E 135°03'6 1.6
2015-Feb-17 03:25N 34°38' E 134°56'1113.4
2015-Feb-17 02:33N 34°39' E 135°10'  

Dump ship's entire track history